createdAt,value
2022-08-10T00:00:49.167Z,17.92
2022-08-10T00:01:51.236Z,17.98
2022-08-10T00:02:49.099Z,17.86
2022-08-10T00:03:49.068Z,17.92
2022-08-10T00:04:49.095Z,17.90
2022-08-10T00:05:52.565Z,17.92
2022-08-10T00:06:48.997Z,17.85
2022-08-10T00:07:48.978Z,17.83
2022-08-10T00:08:48.926Z,17.80
2022-08-10T00:09:50.612Z,17.79
2022-08-10T00:10:48.877Z,17.72
2022-08-10T00:11:48.849Z,17.76
2022-08-10T00:12:54.348Z,17.76
2022-08-10T00:13:48.833Z,17.78
2022-08-10T00:14:48.834Z,17.70
2022-08-10T00:15:53.422Z,17.68
2022-08-10T00:16:48.711Z,17.65
2022-08-10T00:17:48.661Z,17.72
2022-08-10T00:18:48.638Z,17.71
2022-08-10T00:20:04.078Z,17.67
2022-08-10T00:20:48.627Z,17.65
2022-08-10T00:21:48.542Z,17.71
2022-08-10T00:22:52.846Z,17.68
2022-08-10T00:23:48.483Z,17.65
2022-08-10T00:24:48.458Z,17.64
2022-08-10T00:25:48.507Z,17.52
2022-08-10T00:27:52.007Z,17.60
2022-08-10T00:28:02.637Z,17.54
2022-08-10T00:28:48.343Z,17.46
2022-08-10T00:29:48.317Z,17.52
2022-08-10T00:30:48.336Z,17.44
2022-08-10T00:31:56.036Z,17.42
2022-08-10T00:32:48.222Z,17.42
2022-08-10T00:33:48.195Z,17.44
2022-08-10T00:34:48.163Z,17.38
2022-08-10T00:35:48.138Z,17.51
2022-08-10T00:36:48.158Z,17.42
2022-08-10T00:37:56.422Z,17.45
2022-08-10T00:38:48.046Z,17.51
2022-08-10T00:39:48.062Z,17.56
2022-08-10T00:40:47.982Z,17.52
2022-08-10T00:42:06.482Z,17.46
2022-08-10T00:42:47.984Z,17.41
2022-08-10T00:43:47.896Z,17.42
2022-08-10T00:44:47.867Z,17.41
2022-08-10T00:45:58.985Z,17.34
2022-08-10T00:46:48.434Z,17.29
2022-08-10T00:47:47.855Z,17.24
2022-08-10T00:48:47.753Z,17.31
2022-08-10T00:49:47.718Z,17.36
2022-08-10T00:50:47.687Z,17.23
2022-08-10T00:51:48.877Z,17.23
2022-08-10T00:52:47.710Z,17.11
2022-08-10T00:53:47.598Z,17.15
2022-08-10T00:54:47.571Z,17.09
2022-08-10T00:57:12.665Z,17.05
2022-08-10T00:57:16.539Z,17.09
2022-08-10T00:57:54.931Z,17.02
2022-08-10T00:58:47.507Z,17.06
2022-08-10T00:59:59.021Z,16.96
2022-08-10T01:00:47.399Z,16.86
2022-08-10T01:02:10.970Z,16.86
2022-08-10T01:02:47.499Z,16.68
2022-08-10T01:04:58.687Z,16.78
2022-08-10T01:05:00.050Z,16.60
2022-08-10T01:05:51.458Z,16.53
2022-08-10T01:06:47.243Z,16.50
2022-08-10T01:07:47.198Z,16.50
2022-08-10T01:08:47.222Z,16.26
2022-08-10T01:09:56.945Z,16.20
2022-08-10T01:10:47.096Z,16.16
2022-08-10T01:12:37.588Z,16.05
2022-08-10T01:12:47.308Z,16.10
2022-08-10T01:13:47.003Z,16.02
2022-08-10T01:14:47.038Z,15.92
2022-08-10T01:15:46.949Z,15.98
2022-08-10T01:16:46.922Z,15.98
2022-08-10T01:17:49.936Z,15.77
2022-08-10T01:18:46.861Z,15.84
2022-08-10T01:19:46.885Z,15.80
2022-08-10T01:20:46.857Z,15.75
2022-08-10T01:21:54.055Z,15.68
2022-08-10T01:22:46.742Z,15.76
2022-08-10T01:23:46.704Z,15.61
2022-08-10T01:24:46.676Z,15.58
2022-08-10T01:26:11.079Z,15.57
2022-08-10T01:26:46.621Z,15.61
2022-08-10T01:27:46.589Z,15.58
2022-08-10T01:28:46.556Z,15.58
2022-08-10T01:29:46.548Z,15.65
2022-08-10T01:30:46.561Z,15.77
2022-08-10T01:31:46.506Z,15.73
2022-08-10T01:32:46.437Z,15.67
2022-08-10T01:33:58.167Z,15.64
2022-08-10T01:34:46.379Z,15.59
2022-08-10T01:35:46.405Z,15.64
2022-08-10T01:36:46.371Z,15.51
2022-08-10T01:37:51.950Z,15.44
2022-08-10T01:38:46.263Z,15.47
2022-08-10T01:39:46.300Z,15.44
2022-08-10T01:40:46.213Z,15.49
2022-08-10T01:41:47.172Z,15.42
2022-08-10T01:42:46.154Z,15.39
2022-08-10T01:43:46.108Z,15.33
2022-08-10T01:44:46.078Z,15.35
2022-08-10T01:45:46.218Z,15.29
2022-08-10T01:46:46.089Z,15.35
2022-08-10T01:47:45.993Z,15.31
2022-08-10T01:48:45.961Z,15.33
2022-08-10T01:49:45.926Z,15.29
2022-08-10T01:50:59.985Z,15.33
2022-08-10T01:51:45.933Z,15.40
2022-08-10T01:52:45.897Z,15.35
2022-08-10T01:53:45.800Z,15.46
2022-08-10T01:54:46.721Z,15.42
2022-08-10T01:55:45.746Z,15.57
2022-08-10T01:56:45.719Z,15.68
2022-08-10T01:57:45.743Z,15.68
2022-08-10T01:58:45.708Z,15.57
2022-08-10T01:59:58.503Z,15.59
2022-08-10T02:00:45.608Z,15.51
2022-08-10T02:01:45.609Z,15.43
2022-08-10T02:02:45.619Z,15.33
2022-08-10T02:04:03.702Z,15.31
2022-08-10T02:04:45.468Z,15.17
2022-08-10T02:05:45.439Z,15.21
2022-08-10T02:06:45.420Z,15.06
2022-08-10T02:07:45.381Z,15.03
2022-08-10T02:08:45.411Z,14.94
2022-08-10T02:09:45.317Z,14.91
2022-08-10T02:10:45.286Z,14.84
2022-08-10T02:11:57.529Z,14.78
2022-08-10T02:12:45.231Z,14.66
2022-08-10T02:13:45.256Z,14.65
2022-08-10T02:14:45.228Z,14.69
2022-08-10T02:16:01.832Z,14.60
2022-08-10T02:16:45.158Z,14.62
2022-08-10T02:18:00.868Z,14.59
2022-08-10T02:18:45.048Z,14.50
2022-08-10T02:19:45.070Z,14.44
2022-08-10T02:20:44.993Z,14.45
2022-08-10T02:22:37.010Z,14.47
2022-08-10T02:22:44.920Z,14.45
2022-08-10T02:23:44.901Z,14.48
2022-08-10T02:24:44.919Z,14.53
2022-08-10T02:25:44.831Z,14.63
2022-08-10T02:26:44.799Z,14.66
2022-08-10T02:27:44.792Z,14.70
2022-08-10T02:28:44.740Z,14.73
2022-08-10T02:29:44.767Z,14.65
2022-08-10T02:30:44.678Z,14.60
2022-08-10T02:31:44.645Z,14.65
2022-08-10T02:32:44.722Z,14.65
2022-08-10T02:33:45.568Z,14.68
2022-08-10T02:34:44.557Z,14.68
2022-08-10T02:35:55.371Z,14.59
2022-08-10T02:36:44.496Z,14.59
2022-08-10T02:37:44.464Z,14.48
2022-08-10T02:38:58.822Z,14.51
2022-08-10T02:39:44.459Z,14.51
2022-08-10T02:45:15.453Z,14.36
2022-08-10T02:45:15.617Z,14.45
2022-08-10T02:45:15.845Z,14.41
2022-08-10T02:45:19.468Z,14.33
2022-08-10T02:45:23.047Z,14.40
2022-08-10T02:45:44.217Z,14.28
2022-08-10T02:46:44.637Z,14.37
2022-08-10T02:47:50.977Z,14.20
2022-08-10T02:48:44.128Z,14.22
2022-08-10T02:49:44.097Z,14.20
2022-08-10T02:50:44.065Z,14.15
2022-08-10T02:52:08.009Z,14.04
2022-08-10T02:52:44.006Z,14.05
2022-08-10T02:53:55.344Z,13.96
2022-08-10T02:54:43.996Z,13.93
2022-08-10T02:55:43.918Z,13.93
2022-08-10T02:56:43.882Z,13.93
2022-08-10T02:58:13.327Z,13.89
2022-08-10T02:58:43.822Z,13.87
2022-08-10T02:59:43.794Z,13.78
2022-08-10T03:00:43.816Z,13.77
2022-08-10T03:01:43.722Z,13.72
2022-08-10T03:02:43.752Z,13.67
2022-08-10T03:03:43.664Z,13.72
2022-08-10T03:04:55.743Z,13.74
2022-08-10T03:05:43.720Z,13.67
2022-08-10T03:06:43.777Z,13.67
2022-08-10T03:07:45.089Z,13.70
2022-08-10T03:08:43.590Z,13.67
2022-08-10T03:09:43.483Z,13.70
2022-08-10T03:10:43.454Z,13.63
2022-08-10T03:12:37.426Z,13.56
2022-08-10T03:12:43.383Z,13.65
2022-08-10T03:13:43.357Z,13.52
2022-08-10T03:14:43.380Z,13.46
2022-08-10T03:15:43.292Z,13.46
2022-08-10T03:16:43.260Z,13.41
2022-08-10T03:17:57.213Z,13.39
2022-08-10T03:18:43.233Z,13.38
2022-08-10T03:20:35.960Z,13.38
2022-08-10T03:20:43.152Z,13.31
2022-08-10T03:21:43.109Z,13.47
2022-08-10T03:22:43.078Z,13.49
2022-08-10T03:23:43.053Z,13.46
2022-08-10T03:24:43.081Z,13.31
2022-08-10T03:25:52.966Z,13.31
2022-08-10T03:26:43.012Z,13.23
2022-08-10T03:27:42.970Z,13.20
2022-08-10T03:28:42.889Z,13.25
2022-08-10T03:30:32.339Z,13.19
2022-08-10T03:30:42.885Z,13.15
2022-08-10T03:31:42.842Z,13.31
2022-08-10T03:32:42.778Z,13.18
2022-08-10T03:33:42.737Z,13.18
2022-08-10T03:34:42.703Z,13.30
2022-08-10T03:35:42.729Z,13.18
2022-08-10T03:36:45.160Z,13.18
2022-08-10T03:37:42.611Z,13.27
2022-08-10T03:38:42.579Z,13.25
2022-08-10T03:39:42.609Z,13.28
2022-08-10T03:40:45.752Z,13.25
2022-08-10T03:41:47.602Z,13.25
2022-08-10T03:42:42.457Z,13.31
2022-08-10T03:43:42.431Z,13.23
2022-08-10T03:44:43.628Z,13.25
2022-08-10T03:45:54.509Z,13.20
2022-08-10T03:46:42.380Z,13.27
2022-08-10T03:47:42.298Z,13.25
2022-08-10T03:48:48.593Z,13.28
2022-08-10T03:49:42.232Z,13.27
2022-08-10T03:50:50.930Z,13.28
2022-08-10T03:51:42.245Z,13.25
2022-08-10T03:52:42.159Z,13.19
2022-08-10T03:54:06.192Z,13.22
2022-08-10T03:54:42.082Z,13.35
2022-08-10T03:56:29.056Z,13.31
2022-08-10T03:56:42.018Z,13.38
2022-08-10T03:57:49.562Z,13.33
2022-08-10T03:58:41.984Z,13.33
2022-08-10T03:59:41.923Z,13.35
2022-08-10T04:00:41.929Z,13.44
2022-08-10T04:02:52.387Z,13.38
2022-08-10T04:02:52.750Z,13.35
2022-08-10T04:03:41.802Z,13.38
2022-08-10T04:04:41.821Z,13.39
2022-08-10T04:05:41.737Z,13.42
2022-08-10T04:06:41.712Z,13.50
2022-08-10T04:07:41.675Z,13.49
2022-08-10T04:08:41.702Z,13.62
2022-08-10T04:09:53.117Z,13.50
2022-08-10T04:10:41.579Z,13.56
2022-08-10T04:11:41.551Z,13.56
2022-08-10T04:12:41.523Z,13.71
2022-08-10T04:13:41.549Z,13.79
2022-08-10T04:14:49.420Z,13.96
2022-08-10T04:15:41.428Z,14.08
2022-08-10T04:16:41.393Z,14.12
2022-08-10T04:18:02.988Z,14.22
2022-08-10T04:18:41.337Z,14.40
2022-08-10T04:19:41.363Z,14.53
2022-08-10T04:20:41.276Z,14.72
2022-08-10T04:21:41.243Z,14.92
2022-08-10T04:22:41.991Z,15.04
2022-08-10T04:23:41.176Z,15.03
2022-08-10T04:24:41.199Z,14.96
2022-08-10T04:25:41.119Z,14.77
2022-08-10T04:26:41.081Z,14.63
2022-08-10T04:27:41.053Z,14.66
2022-08-10T04:28:41.024Z,14.68
2022-08-10T04:29:41.049Z,14.77
2022-08-10T04:30:41.011Z,14.82
2022-08-10T04:31:41.462Z,14.66
2022-08-10T04:32:41.116Z,14.59
2022-08-10T04:33:40.870Z,14.44
2022-08-10T04:34:40.856Z,14.47
2022-08-10T04:35:40.864Z,14.40
2022-08-10T04:36:40.842Z,14.40
2022-08-10T04:37:47.388Z,14.32
2022-08-10T04:38:40.713Z,14.36
2022-08-10T04:39:40.771Z,14.37
2022-08-10T04:40:40.654Z,14.41
2022-08-10T04:41:46.190Z,14.35
2022-08-10T04:42:40.595Z,14.44
2022-08-10T04:43:40.597Z,14.53
2022-08-10T04:44:40.547Z,14.58
2022-08-10T04:45:49.613Z,14.68
2022-08-10T04:46:56.256Z,14.72
2022-08-10T04:47:57.896Z,14.72
2022-08-10T04:49:01.559Z,14.84
2022-08-10T04:49:55.593Z,15.04
2022-08-10T04:50:40.608Z,15.03
2022-08-10T04:51:40.424Z,15.06
2022-08-10T04:52:40.294Z,15.07
2022-08-10T04:54:05.904Z,15.15
2022-08-10T04:54:40.225Z,15.14
2022-08-10T04:55:40.195Z,15.06
2022-08-10T04:56:40.193Z,15.14
2022-08-10T04:57:40.133Z,15.22
2022-08-10T04:58:40.174Z,15.25
2022-08-10T04:59:40.140Z,15.22
2022-08-10T05:00:40.176Z,15.31
2022-08-10T05:02:28.531Z,15.31
2022-08-10T05:02:40.206Z,15.49
2022-08-10T05:04:35.285Z,15.55
2022-08-10T05:04:39.934Z,15.68
2022-08-10T05:05:40.017Z,15.68
2022-08-10T05:06:39.881Z,15.59
2022-08-10T05:07:48.086Z,15.68
2022-08-10T05:08:39.811Z,15.80
2022-08-10T05:10:02.648Z,15.90
2022-08-10T05:10:39.747Z,16.02
2022-08-10T05:11:39.794Z,16.05
2022-08-10T05:12:39.750Z,16.01
2022-08-10T05:13:39.653Z,15.95
2022-08-10T05:14:39.623Z,15.92
2022-08-10T05:15:39.589Z,15.97
2022-08-10T05:16:39.554Z,15.94
2022-08-10T05:17:39.598Z,15.95
2022-08-10T05:18:39.495Z,15.95
2022-08-10T05:20:04.848Z,16.02
2022-08-10T05:20:39.442Z,16.09
2022-08-10T05:21:56.391Z,16.02
2022-08-10T05:22:40.054Z,16.08
2022-08-10T05:23:39.348Z,16.20
2022-08-10T05:24:39.317Z,16.23
2022-08-10T05:25:39.284Z,16.28
2022-08-10T05:26:55.196Z,16.32
2022-08-10T05:27:39.225Z,16.43
2022-08-10T05:28:39.349Z,16.32
2022-08-10T05:29:39.164Z,16.46
2022-08-10T05:30:39.137Z,16.51
2022-08-10T05:31:39.105Z,16.46
2022-08-10T05:32:56.913Z,16.56
2022-08-10T05:33:39.056Z,16.49
2022-08-10T05:34:39.089Z,16.58
2022-08-10T05:35:51.926Z,16.57
2022-08-10T05:36:38.954Z,16.61
2022-08-10T05:38:10.859Z,16.68
2022-08-10T05:38:38.891Z,16.72
2022-08-10T05:39:38.950Z,16.72
2022-08-10T05:40:38.887Z,16.75
2022-08-10T05:41:42.880Z,16.87
2022-08-10T05:42:38.825Z,16.86
2022-08-10T05:43:38.743Z,16.96
2022-08-10T05:44:38.709Z,16.91
2022-08-10T05:46:15.969Z,16.99
2022-08-10T05:46:38.655Z,17.01
2022-08-10T05:48:54.222Z,17.09
2022-08-10T05:48:57.174Z,17.09
2022-08-10T05:49:38.561Z,17.09
2022-08-10T05:50:38.598Z,17.08
2022-08-10T05:51:38.592Z,17.08
2022-08-10T05:52:38.551Z,17.11
2022-08-10T05:54:02.863Z,17.14
2022-08-10T05:54:46.141Z,17.14
2022-08-10T05:55:38.437Z,17.15
2022-08-10T05:56:54.328Z,17.22
2022-08-10T05:57:38.331Z,17.29
2022-08-10T05:58:38.294Z,17.26
2022-08-10T06:00:33.640Z,17.33
2022-08-10T06:00:42.916Z,17.34
2022-08-10T06:01:38.312Z,17.30
2022-08-10T06:02:38.185Z,17.45
2022-08-10T06:03:38.155Z,17.44
2022-08-10T06:04:38.117Z,17.42
2022-08-10T06:05:38.089Z,17.57
2022-08-10T06:06:38.117Z,17.46
2022-08-10T06:07:38.286Z,17.54
2022-08-10T06:08:38.005Z,17.54
2022-08-10T06:09:37.975Z,17.59
2022-08-10T06:10:38.958Z,17.65
2022-08-10T06:12:24.611Z,17.68
2022-08-10T06:12:55.381Z,17.78
2022-08-10T06:13:59.750Z,17.79
2022-08-10T06:14:38.186Z,17.78
2022-08-10T06:15:51.440Z,17.86
2022-08-10T06:16:37.769Z,17.87
2022-08-10T06:17:37.809Z,17.86
2022-08-10T06:18:37.706Z,17.87
2022-08-10T06:19:37.677Z,17.90
2022-08-10T06:20:37.649Z,18.01
2022-08-10T06:21:37.618Z,17.89
2022-08-10T06:22:37.894Z,18.07
2022-08-10T06:23:37.620Z,18.10
2022-08-10T06:24:43.154Z,18.10
2022-08-10T06:26:11.934Z,18.20
2022-08-10T06:26:37.474Z,18.28
2022-08-10T06:27:37.510Z,18.31
2022-08-10T06:28:37.415Z,18.34
2022-08-10T06:29:37.384Z,18.45
2022-08-10T06:30:37.363Z,18.56
2022-08-10T06:31:47.931Z,18.62
2022-08-10T06:32:37.357Z,18.65
2022-08-10T06:33:37.388Z,18.66
2022-08-10T06:34:37.247Z,18.65
2022-08-10T06:35:37.226Z,18.70
2022-08-10T06:36:37.193Z,18.77
2022-08-10T06:37:37.156Z,18.75
2022-08-10T06:38:37.154Z,18.78
2022-08-10T06:39:37.373Z,18.92
2022-08-10T06:40:37.181Z,18.89
2022-08-10T06:42:14.321Z,18.99
2022-08-10T06:42:37.240Z,19.00
2022-08-10T06:43:37.009Z,18.95
2022-08-10T06:44:37.010Z,19.02
2022-08-10T06:45:37.019Z,19.09
2022-08-10T06:46:36.931Z,19.16
2022-08-10T06:47:36.915Z,19.11
2022-08-10T06:48:36.912Z,19.31
2022-08-10T06:49:36.815Z,19.30
2022-08-10T06:50:56.265Z,19.41
2022-08-10T06:51:36.818Z,19.39
2022-08-10T06:52:37.875Z,19.51
2022-08-10T06:53:52.347Z,19.56
2022-08-10T06:54:36.672Z,19.52
2022-08-10T06:55:49.877Z,19.70
2022-08-10T06:56:43.699Z,19.77
2022-08-10T06:57:36.608Z,19.76
2022-08-10T06:58:36.562Z,19.76
2022-08-10T06:59:36.947Z,19.76
2022-08-10T07:00:36.756Z,19.81
2022-08-10T07:01:36.481Z,19.85
2022-08-10T07:02:36.561Z,19.88
2022-08-10T07:03:36.418Z,19.92
2022-08-10T07:04:36.398Z,19.92
2022-08-10T07:05:36.356Z,19.99
2022-08-10T07:06:36.692Z,20.04
2022-08-10T07:07:36.299Z,20.03
2022-08-10T07:08:36.298Z,20.07
2022-08-10T07:09:36.252Z,20.10
2022-08-10T07:10:41.074Z,20.18
2022-08-10T07:11:36.193Z,20.31
2022-08-10T07:12:36.415Z,20.22
2022-08-10T07:14:17.163Z,20.40
2022-08-10T07:14:36.107Z,20.39
2022-08-10T07:15:59.660Z,20.40
2022-08-10T07:16:36.057Z,20.37
2022-08-10T07:17:39.523Z,20.37
2022-08-10T07:18:36.002Z,20.47
2022-08-10T07:19:35.969Z,20.55
2022-08-10T07:20:35.940Z,20.51
2022-08-10T07:21:35.917Z,20.58
2022-08-10T07:23:08.276Z,20.60
2022-08-10T07:23:57.442Z,20.65
2022-08-10T07:24:35.832Z,20.62
2022-08-10T07:25:35.815Z,20.62
2022-08-10T07:26:35.774Z,20.69
2022-08-10T07:27:58.218Z,20.70
2022-08-10T07:28:35.723Z,20.75
2022-08-10T07:29:54.449Z,20.84
2022-08-10T07:30:35.666Z,20.84
2022-08-10T07:31:55.442Z,20.97
2022-08-10T07:32:35.700Z,20.88
2022-08-10T07:33:35.636Z,20.96
2022-08-10T07:34:35.603Z,21.00
2022-08-10T07:35:43.121Z,21.03
2022-08-10T07:36:35.503Z,20.99
2022-08-10T07:37:35.473Z,21.00
2022-08-10T07:38:35.546Z,21.11
2022-08-10T07:39:57.920Z,21.18
2022-08-10T07:40:35.514Z,21.29
2022-08-10T07:41:35.400Z,21.30
2022-08-10T07:42:35.464Z,21.43
2022-08-10T07:43:35.311Z,21.48
2022-08-10T07:44:35.284Z,21.40
2022-08-10T07:45:36.171Z,21.54
2022-08-10T07:46:35.231Z,21.57
2022-08-10T07:47:53.334Z,21.55
2022-08-10T07:48:35.299Z,21.61
2022-08-10T07:49:35.151Z,21.70
2022-08-10T07:50:35.474Z,21.69
2022-08-10T07:51:35.101Z,21.70
2022-08-10T07:52:35.832Z,21.88
2022-08-10T07:53:35.044Z,21.91
2022-08-10T07:54:35.014Z,22.02
2022-08-10T07:56:05.362Z,21.99
2022-08-10T07:56:48.433Z,22.04
2022-08-10T07:57:39.992Z,22.07
2022-08-10T07:58:34.966Z,22.04
2022-08-10T07:59:34.886Z,22.10
2022-08-10T08:00:34.860Z,22.07
2022-08-10T08:01:35.002Z,22.15
2022-08-10T08:02:35.817Z,22.18
2022-08-10T08:03:34.779Z,22.13
2022-08-10T08:04:34.796Z,22.18
2022-08-10T08:05:58.389Z,22.29
2022-08-10T08:06:34.700Z,22.22
2022-08-10T08:07:34.720Z,22.36
2022-08-10T08:08:34.655Z,22.32
2022-08-10T08:09:34.617Z,22.33
2022-08-10T08:10:34.588Z,22.38
2022-08-10T08:11:34.589Z,22.28
2022-08-10T08:12:36.984Z,22.36
2022-08-10T08:13:34.520Z,22.32
2022-08-10T08:14:34.486Z,22.36
2022-08-10T08:16:17.498Z,22.41
2022-08-10T08:16:34.434Z,22.38
2022-08-10T08:17:35.670Z,22.26
2022-08-10T08:18:36.952Z,22.29
2022-08-10T08:19:35.840Z,22.48
2022-08-10T08:20:34.326Z,22.53
2022-08-10T08:24:04.545Z,22.45
2022-08-10T08:24:04.585Z,22.57
2022-08-10T08:24:09.793Z,22.47
2022-08-10T08:24:34.698Z,22.54
2022-08-10T08:25:34.201Z,22.60
2022-08-10T08:26:34.170Z,22.63
2022-08-10T08:27:34.145Z,22.72
2022-08-10T08:28:34.142Z,22.68
2022-08-10T08:29:34.277Z,22.75
2022-08-10T08:30:34.071Z,22.81
2022-08-10T08:31:34.066Z,22.81
2022-08-10T08:32:34.026Z,22.81
2022-08-10T08:33:41.163Z,22.94
2022-08-10T08:34:33.963Z,22.99
2022-08-10T08:35:33.990Z,23.05
2022-08-10T08:36:33.906Z,23.13
2022-08-10T08:38:29.470Z,23.23
2022-08-10T08:38:34.870Z,23.31
2022-08-10T08:39:33.905Z,23.39
2022-08-10T08:40:33.859Z,23.23
2022-08-10T08:41:33.823Z,23.13
2022-08-10T08:42:33.755Z,23.09
2022-08-10T08:43:33.826Z,23.09
2022-08-10T08:44:34.985Z,23.06
2022-08-10T08:45:33.736Z,23.08
2022-08-10T08:46:33.646Z,23.17
2022-08-10T08:48:03.678Z,23.24
2022-08-10T08:48:33.595Z,23.31
2022-08-10T08:50:07.830Z,23.32
2022-08-10T08:50:33.596Z,23.36
2022-08-10T08:52:11.332Z,23.36
2022-08-10T08:52:33.495Z,23.46
2022-08-10T08:54:03.352Z,23.34
2022-08-10T08:54:33.444Z,23.40
2022-08-10T08:56:03.721Z,23.40
2022-08-10T08:56:33.578Z,23.50
2022-08-10T08:57:50.049Z,23.55
2022-08-10T08:58:33.355Z,23.66
2022-08-10T08:59:33.369Z,23.74
2022-08-10T09:00:33.294Z,23.68
2022-08-10T09:01:38.021Z,23.73
2022-08-10T09:02:33.388Z,23.69
2022-08-10T09:03:33.207Z,23.69
2022-08-10T09:04:33.193Z,23.69
2022-08-10T09:05:58.661Z,23.68
2022-08-10T09:06:33.127Z,23.73
2022-08-10T09:07:59.581Z,23.83
2022-08-10T09:08:33.081Z,23.83
2022-08-10T09:09:33.053Z,23.78
2022-08-10T09:10:37.384Z,23.84
2022-08-10T09:11:33.037Z,23.88
2022-08-10T09:12:33.701Z,23.95
2022-08-10T09:13:33.150Z,24.02
2022-08-10T09:14:32.920Z,24.06
2022-08-10T09:15:40.976Z,24.08
2022-08-10T09:16:32.904Z,24.08
2022-08-10T09:17:32.849Z,24.18
2022-08-10T09:18:32.821Z,24.10
2022-08-10T09:19:35.540Z,24.10
2022-08-10T09:20:32.777Z,23.98
2022-08-10T09:21:55.202Z,23.91
2022-08-10T09:22:32.734Z,23.95
2022-08-10T09:24:05.154Z,23.98
2022-08-10T09:24:32.808Z,24.06
2022-08-10T09:25:32.643Z,24.06
2022-08-10T09:26:32.622Z,24.16
2022-08-10T09:27:33.045Z,24.24
2022-08-10T09:28:32.569Z,24.21
2022-08-10T09:29:32.544Z,24.21
2022-08-10T09:30:35.757Z,24.20
2022-08-10T09:31:32.492Z,24.20
2022-08-10T09:36:14.520Z,24.33
2022-08-10T09:36:26.782Z,24.18
2022-08-10T09:36:27.004Z,24.40
2022-08-10T09:36:27.606Z,24.29
2022-08-10T09:36:33.778Z,24.24
2022-08-10T09:37:58.731Z,24.24
2022-08-10T09:38:32.317Z,24.33
2022-08-10T09:40:12.725Z,24.29
2022-08-10T09:41:00.607Z,24.36
2022-08-10T09:41:32.310Z,24.38
2022-08-10T09:42:32.278Z,24.57
2022-08-10T09:43:32.181Z,24.48
2022-08-10T09:44:32.173Z,24.55
2022-08-10T09:45:32.154Z,24.55
2022-08-10T09:46:32.212Z,24.48
2022-08-10T09:48:01.442Z,24.45
2022-08-10T09:48:32.062Z,24.55
2022-08-10T09:49:53.991Z,24.60
2022-08-10T09:50:55.709Z,24.55
2022-08-10T09:51:45.289Z,24.66
2022-08-10T09:52:32.089Z,24.68
2022-08-10T09:53:31.963Z,24.69
2022-08-10T09:54:31.904Z,24.69
2022-08-10T09:56:17.716Z,24.78
2022-08-10T09:56:31.864Z,24.66
2022-08-10T09:57:54.835Z,24.66
2022-08-10T09:58:31.809Z,24.69
2022-08-10T10:00:00.585Z,24.70
2022-08-10T10:00:31.793Z,24.70
2022-08-10T10:02:03.506Z,24.85
2022-08-10T10:02:31.706Z,24.86
2022-08-10T10:03:31.959Z,24.96
2022-08-10T10:04:31.669Z,24.92
2022-08-10T10:05:31.635Z,25.06
2022-08-10T10:06:31.609Z,25.04
2022-08-10T10:07:31.589Z,25.03
2022-08-10T10:08:31.615Z,25.21
2022-08-10T10:09:31.530Z,25.16
2022-08-10T10:10:31.522Z,25.25
2022-08-10T10:11:31.503Z,25.22
2022-08-10T10:12:31.464Z,25.21
2022-08-10T10:13:52.709Z,25.13
2022-08-10T10:14:31.413Z,25.22
2022-08-10T10:15:31.385Z,25.14
2022-08-10T10:16:31.366Z,25.16
2022-08-10T10:17:31.417Z,25.07
2022-08-10T10:18:31.412Z,25.07
2022-08-10T10:19:31.289Z,25.11
2022-08-10T10:20:31.268Z,24.99
2022-08-10T10:21:54.792Z,24.86
2022-08-10T10:22:31.210Z,25.01
2022-08-10T10:23:31.193Z,24.89
2022-08-10T10:24:31.253Z,24.91
2022-08-10T10:25:50.382Z,25.08
2022-08-10T10:26:31.113Z,25.23
2022-08-10T10:27:31.101Z,25.25
2022-08-10T10:28:50.127Z,25.26
2022-08-10T10:29:58.518Z,25.28
2022-08-10T10:30:31.074Z,25.31
2022-08-10T10:31:30.992Z,25.29
2022-08-10T10:32:34.783Z,25.28
2022-08-10T10:33:30.948Z,25.36
2022-08-10T10:34:31.019Z,25.41
2022-08-10T10:35:30.970Z,25.48
2022-08-10T10:36:30.888Z,25.43
2022-08-10T10:38:00.959Z,25.44
2022-08-10T10:38:30.832Z,25.44
2022-08-10T10:39:30.851Z,25.46
2022-08-10T10:40:30.829Z,25.43
2022-08-10T10:41:30.760Z,25.38
2022-08-10T10:42:44.806Z,25.43
2022-08-10T10:43:30.701Z,25.48
2022-08-10T10:44:30.803Z,25.48
2022-08-10T10:45:30.669Z,25.38
2022-08-10T10:46:30.704Z,25.44
2022-08-10T10:47:30.605Z,25.48
2022-08-10T10:48:30.653Z,25.48
2022-08-10T10:49:30.569Z,25.43
2022-08-10T10:50:30.534Z,25.43
2022-08-10T10:51:30.565Z,25.43
2022-08-10T10:52:30.493Z,25.51
2022-08-10T10:53:30.480Z,25.46
2022-08-10T10:54:30.510Z,25.48
2022-08-10T10:55:30.413Z,25.58
2022-08-10T10:56:30.443Z,25.58
2022-08-10T10:57:59.824Z,25.50
2022-08-10T10:58:30.414Z,25.65
2022-08-10T10:59:54.936Z,25.69
2022-08-10T11:00:30.301Z,25.68
2022-08-10T11:01:30.410Z,25.63
2022-08-10T11:02:30.287Z,25.70
2022-08-10T11:03:30.220Z,25.72
2022-08-10T11:04:30.201Z,25.70
2022-08-10T11:05:30.183Z,25.72
2022-08-10T11:06:39.804Z,25.80
2022-08-10T11:07:31.804Z,25.83
2022-08-10T11:08:30.118Z,25.77
2022-08-10T11:10:07.018Z,25.80
2022-08-10T11:10:32.710Z,25.83
2022-08-10T11:12:01.346Z,25.81
2022-08-10T11:12:30.070Z,25.81
2022-08-10T11:14:24.801Z,25.87
2022-08-10T11:14:29.984Z,26.05
2022-08-10T11:15:29.944Z,26.03
2022-08-10T11:16:29.908Z,26.02
2022-08-10T11:17:29.958Z,26.13
2022-08-10T11:18:29.867Z,26.23
2022-08-10T11:20:00.309Z,26.21
2022-08-10T11:20:29.819Z,26.26
2022-08-10T11:21:29.802Z,26.19
2022-08-10T11:22:29.763Z,26.03
2022-08-10T11:23:29.811Z,26.02
2022-08-10T11:24:47.172Z,26.13
2022-08-10T11:25:29.695Z,26.18
2022-08-10T11:26:29.681Z,26.09
2022-08-10T11:27:29.644Z,26.13
2022-08-10T11:28:29.689Z,26.15
2022-08-10T11:29:29.607Z,26.07
2022-08-10T11:30:29.577Z,26.09
2022-08-10T11:31:29.559Z,26.13
2022-08-10T11:32:29.538Z,26.10
2022-08-10T11:33:32.611Z,26.02
2022-08-10T11:34:48.170Z,26.05
2022-08-10T11:35:34.155Z,26.03
2022-08-10T11:36:29.436Z,26.00
2022-08-10T11:37:29.414Z,26.13
2022-08-10T11:38:37.040Z,26.21
2022-08-10T11:39:29.485Z,26.23
2022-08-10T11:40:29.472Z,26.23
2022-08-10T11:42:09.256Z,26.22
2022-08-10T11:42:35.658Z,26.26
2022-08-10T11:43:29.269Z,26.13
2022-08-10T11:44:29.248Z,26.21
2022-08-10T11:45:29.282Z,26.16
2022-08-10T11:46:29.344Z,26.22
2022-08-10T11:47:29.173Z,26.23
2022-08-10T11:48:54.129Z,26.34
2022-08-10T11:49:29.130Z,26.52
2022-08-10T11:50:29.157Z,26.62
2022-08-10T11:51:29.078Z,26.68
2022-08-10T11:52:29.135Z,26.65
2022-08-10T11:53:38.781Z,26.60
2022-08-10T11:54:29.023Z,26.55
2022-08-10T11:55:36.098Z,26.47
2022-08-10T11:56:28.967Z,26.47
2022-08-10T11:57:53.319Z,26.43
2022-08-10T11:58:28.969Z,26.47
2022-08-10T11:59:28.881Z,26.56
2022-08-10T12:00:29.593Z,26.59
2022-08-10T12:01:28.881Z,26.62
2022-08-10T12:02:28.998Z,26.63
2022-08-10T12:03:34.039Z,26.66
2022-08-10T12:04:28.765Z,26.65
2022-08-10T12:05:53.750Z,26.63
2022-08-10T12:06:53.601Z,26.63
2022-08-10T12:10:01.987Z,26.58
2022-08-10T12:10:06.461Z,26.58
2022-08-10T12:10:08.577Z,26.62
2022-08-10T12:10:28.622Z,26.68
2022-08-10T12:11:28.654Z,26.63
2022-08-10T12:12:28.581Z,26.58
2022-08-10T12:13:28.555Z,26.59
2022-08-10T12:14:28.551Z,26.53
2022-08-10T12:15:28.508Z,26.53
2022-08-10T12:16:28.598Z,26.47
2022-08-10T12:17:28.459Z,26.47
2022-08-10T12:18:28.435Z,26.33
2022-08-10T12:19:28.417Z,26.44
2022-08-10T12:20:28.387Z,26.53
2022-08-10T12:21:28.364Z,26.60
2022-08-10T12:22:28.424Z,26.56
2022-08-10T12:23:28.320Z,26.68
2022-08-10T12:24:28.298Z,26.63
2022-08-10T12:25:57.679Z,26.60
2022-08-10T12:26:28.254Z,26.59
2022-08-10T12:27:28.288Z,26.59
2022-08-10T12:28:51.213Z,26.66
2022-08-10T12:29:28.182Z,26.66
2022-08-10T12:30:28.156Z,26.84
2022-08-10T12:31:28.131Z,26.80
2022-08-10T12:32:28.194Z,26.84
2022-08-10T12:33:28.084Z,26.70
2022-08-10T12:34:28.065Z,26.81
2022-08-10T12:35:28.041Z,26.73
2022-08-10T12:36:28.017Z,26.74
2022-08-10T12:37:28.082Z,26.83
2022-08-10T12:38:27.963Z,26.83
2022-08-10T12:39:28.008Z,26.89
2022-08-10T12:40:35.734Z,26.97
2022-08-10T12:41:45.070Z,26.97
2022-08-10T12:42:37.120Z,27.00
2022-08-10T12:44:04.884Z,27.15
2022-08-10T12:44:41.649Z,27.10
2022-08-10T12:45:27.800Z,27.14
2022-08-10T12:46:27.776Z,27.11
2022-08-10T12:47:27.757Z,27.02
2022-08-10T12:48:31.067Z,27.08
2022-08-10T12:49:27.759Z,27.03
2022-08-10T12:50:32.822Z,27.03
2022-08-10T12:51:27.661Z,27.05
2022-08-10T12:52:27.666Z,27.14